sensor_id;sensor_type;location;lat;lon;timestamp;P1;durP1;ratioP1;P2;durP2;ratioP2
13941;SDS011;7043;51.630;7.254;2022-10-20T00:01:24;12.77;;;9.10;;
13941;SDS011;7043;51.630;7.254;2022-10-20T00:03:51;9.00;;;8.03;;
13941;SDS011;7043;51.630;7.254;2022-10-20T00:06:21;11.30;;;8.23;;
13941;SDS011;7043;51.630;7.254;2022-10-20T00:08:47;12.47;;;9.17;;
13941;SDS011;7043;51.630;7.254;2022-10-20T00:11:15;12.53;;;8.53;;
13941;SDS011;7043;51.630;7.254;2022-10-20T00:13:41;10.73;;;8.87;;
13941;SDS011;7043;51.630;7.254;2022-10-20T00:16:08;11.53;;;8.73;;
13941;SDS011;7043;51.630;7.254;2022-10-20T00:18:34;13.87;;;9.03;;
13941;SDS011;7043;51.630;7.254;2022-10-20T00:21:03;13.63;;;9.13;;
13941;SDS011;7043;51.630;7.254;2022-10-20T00:23:29;9.93;;;8.80;;
13941;SDS011;7043;51.630;7.254;2022-10-20T00:25:59;13.40;;;9.70;;
13941;SDS011;7043;51.630;7.254;2022-10-20T00:28:25;12.40;;;9.43;;
13941;SDS011;7043;51.630;7.254;2022-10-20T00:30:53;9.47;;;8.47;;
13941;SDS011;7043;51.630;7.254;2022-10-20T00:33:20;12.77;;;8.93;;
13941;SDS011;7043;51.630;7.254;2022-10-20T00:35:46;11.73;;;8.90;;
13941;SDS011;7043;51.630;7.254;2022-10-20T00:38:12;10.60;;;8.83;;
13941;SDS011;7043;51.630;7.254;2022-10-20T00:40:38;11.37;;;8.83;;
13941;SDS011;7043;51.630;7.254;2022-10-20T00:43:08;12.37;;;8.73;;
13941;SDS011;7043;51.630;7.254;2022-10-20T00:45:34;9.77;;;8.77;;
13941;SDS011;7043;51.630;7.254;2022-10-20T00:50:58;9.97;;;8.93;;
13941;SDS011;7043;51.630;7.254;2022-10-20T00:53:25;9.70;;;8.70;;
13941;SDS011;7043;51.630;7.254;2022-10-20T00:55:53;11.77;;;9.37;;
13941;SDS011;7043;51.630;7.254;2022-10-20T00:58:20;9.70;;;8.73;;
13941;SDS011;7043;51.630;7.254;2022-10-20T01:00:47;11.33;;;9.83;;
13941;SDS011;7043;51.630;7.254;2022-10-20T01:03:15;12.23;;;9.70;;
13941;SDS011;7043;51.630;7.254;2022-10-20T01:05:42;10.07;;;9.03;;
13941;SDS011;7043;51.630;7.254;2022-10-20T01:08:08;10.47;;;9.10;;
13941;SDS011;7043;51.630;7.254;2022-10-20T01:10:38;11.30;;;9.87;;
13941;SDS011;7043;51.630;7.254;2022-10-20T01:13:28;11.83;;;9.67;;
13941;SDS011;7043;51.630;7.254;2022-10-20T01:18:41;14.17;;;9.90;;
13941;SDS011;7043;51.630;7.254;2022-10-20T01:21:20;14.40;;;10.10;;
13941;SDS011;7043;51.630;7.254;2022-10-20T01:23:55;10.50;;;9.17;;
13941;SDS011;7043;51.630;7.254;2022-10-20T01:33:57;12.47;;;9.00;;
13941;SDS011;7043;51.630;7.254;2022-10-20T01:36:34;11.60;;;9.33;;
13941;SDS011;7043;51.630;7.254;2022-10-20T01:39:03;12.27;;;9.90;;
13941;SDS011;7043;51.630;7.254;2022-10-20T01:44:29;11.33;;;9.23;;
13941;SDS011;7043;51.630;7.254;2022-10-20T01:46:56;12.60;;;9.80;;
13941;SDS011;7043;51.630;7.254;2022-10-20T01:49:23;11.40;;;9.47;;
13941;SDS011;7043;51.630;7.254;2022-10-20T01:51:49;13.77;;;10.00;;
13941;SDS011;7043;51.630;7.254;2022-10-20T01:54:19;11.37;;;9.90;;
13941;SDS011;7043;51.630;7.254;2022-10-20T01:56:59;12.07;;;9.27;;
13941;SDS011;7043;51.630;7.254;2022-10-20T02:04:46;13.90;;;9.33;;
13941;SDS011;7043;51.630;7.254;2022-10-20T02:07:19;13.67;;;9.47;;
13941;SDS011;7043;51.630;7.254;2022-10-20T02:09:49;11.53;;;9.43;;
13941;SDS011;7043;51.630;7.254;2022-10-20T02:12:22;14.73;;;10.13;;
13941;SDS011;7043;51.630;7.254;2022-10-20T02:14:49;10.50;;;9.40;;
13941;SDS011;7043;51.630;7.254;2022-10-20T02:17:15;11.33;;;9.77;;
13941;SDS011;7043;51.630;7.254;2022-10-20T02:19:43;11.67;;;9.37;;
13941;SDS011;7043;51.630;7.254;2022-10-20T02:22:11;14.17;;;9.73;;
13941;SDS011;7043;51.630;7.254;2022-10-20T02:24:38;13.50;;;9.63;;
13941;SDS011;7043;51.630;7.254;2022-10-20T02:29:38;10.50;;;9.30;;
13941;SDS011;7043;51.630;7.254;2022-10-20T02:32:06;12.03;;;10.03;;
13941;SDS011;7043;51.630;7.254;2022-10-20T02:34:32;11.80;;;9.83;;
13941;SDS011;7043;51.630;7.254;2022-10-20T02:36:58;12.67;;;9.80;;
13941;SDS011;7043;51.630;7.254;2022-10-20T02:39:24;12.97;;;9.70;;
13941;SDS011;7043;51.630;7.254;2022-10-20T02:41:50;12.50;;;10.30;;
13941;SDS011;7043;51.630;7.254;2022-10-20T02:44:16;12.57;;;9.93;;
13941;SDS011;7043;51.630;7.254;2022-10-20T02:46:42;16.17;;;10.57;;
13941;SDS011;7043;51.630;7.254;2022-10-20T02:49:08;12.20;;;10.50;;
13941;SDS011;7043;51.630;7.254;2022-10-20T02:51:34;16.23;;;10.53;;
13941;SDS011;7043;51.630;7.254;2022-10-20T02:54:00;13.63;;;11.23;;
13941;SDS011;7043;51.630;7.254;2022-10-20T02:56:26;14.23;;;10.83;;
13941;SDS011;7043;51.630;7.254;2022-10-20T02:58:52;14.10;;;11.37;;
13941;SDS011;7043;51.630;7.254;2022-10-20T03:01:18;13.87;;;11.53;;
13941;SDS011;7043;51.630;7.254;2022-10-20T03:03:46;13.67;;;11.10;;
13941;SDS011;7043;51.630;7.254;2022-10-20T03:06:12;12.93;;;10.87;;
13941;SDS011;7043;51.630;7.254;2022-10-20T03:08:39;12.83;;;10.93;;
13941;SDS011;7043;51.630;7.254;2022-10-20T03:11:05;13.57;;;11.27;;
13941;SDS011;7043;51.630;7.254;2022-10-20T03:13:31;15.40;;;11.50;;
13941;SDS011;7043;51.630;7.254;2022-10-20T03:15:57;13.47;;;11.10;;
13941;SDS011;7043;51.630;7.254;2022-10-20T03:18:23;12.63;;;11.27;;
13941;SDS011;7043;51.630;7.254;2022-10-20T03:20:50;15.50;;;11.27;;
13941;SDS011;7043;51.630;7.254;2022-10-20T03:23:16;13.60;;;11.27;;
13941;SDS011;7043;51.630;7.254;2022-10-20T03:25:42;14.23;;;11.33;;
13941;SDS011;7043;51.630;7.254;2022-10-20T03:28:08;13.00;;;11.27;;
13941;SDS011;7043;51.630;7.254;2022-10-20T03:30:34;13.47;;;11.03;;
13941;SDS011;7043;51.630;7.254;2022-10-20T03:33:00;13.97;;;11.30;;
13941;SDS011;7043;51.630;7.254;2022-10-20T03:35:26;15.30;;;11.57;;
13941;SDS011;7043;51.630;7.254;2022-10-20T03:37:51;15.80;;;12.40;;
13941;SDS011;7043;51.630;7.254;2022-10-20T03:40:17;16.00;;;12.50;;
13941;SDS011;7043;51.630;7.254;2022-10-20T03:42:43;15.23;;;11.33;;
13941;SDS011;7043;51.630;7.254;2022-10-20T03:45:09;13.40;;;11.73;;
13941;SDS011;7043;51.630;7.254;2022-10-20T03:47:35;12.93;;;11.13;;
13941;SDS011;7043;51.630;7.254;2022-10-20T03:50:02;14.80;;;11.40;;
13941;SDS011;7043;51.630;7.254;2022-10-20T03:52:28;16.70;;;12.57;;
13941;SDS011;7043;51.630;7.254;2022-10-20T03:54:54;14.27;;;11.90;;
13941;SDS011;7043;51.630;7.254;2022-10-20T03:57:20;17.40;;;12.50;;
13941;SDS011;7043;51.630;7.254;2022-10-20T03:59:46;13.03;;;11.63;;
13941;SDS011;7043;51.630;7.254;2022-10-20T04:02:22;13.80;;;12.30;;
13941;SDS011;7043;51.630;7.254;2022-10-20T04:04:50;14.47;;;12.40;;
13941;SDS011;7043;51.630;7.254;2022-10-20T04:07:16;15.03;;;13.03;;
13941;SDS011;7043;51.630;7.254;2022-10-20T04:09:42;15.70;;;13.50;;
13941;SDS011;7043;51.630;7.254;2022-10-20T04:12:08;16.40;;;12.90;;
13941;SDS011;7043;51.630;7.254;2022-10-20T04:14:34;18.07;;;12.73;;
13941;SDS011;7043;51.630;7.254;2022-10-20T04:17:00;16.37;;;13.10;;
13941;SDS011;7043;51.630;7.254;2022-10-20T04:19:26;16.23;;;12.83;;
13941;SDS011;7043;51.630;7.254;2022-10-20T04:21:52;14.67;;;12.67;;
13941;SDS011;7043;51.630;7.254;2022-10-20T04:24:18;15.63;;;12.27;;
13941;SDS011;7043;51.630;7.254;2022-10-20T04:26:44;13.90;;;12.07;;
13941;SDS011;7043;51.630;7.254;2022-10-20T04:29:12;17.83;;;13.93;;
13941;SDS011;7043;51.630;7.254;2022-10-20T04:31:38;17.33;;;13.53;;
13941;SDS011;7043;51.630;7.254;2022-10-20T04:34:04;16.13;;;13.73;;
13941;SDS011;7043;51.630;7.254;2022-10-20T04:36:30;18.40;;;13.90;;
13941;SDS011;7043;51.630;7.254;2022-10-20T04:38:56;18.27;;;14.43;;
13941;SDS011;7043;51.630;7.254;2022-10-20T04:41:22;16.93;;;13.70;;
13941;SDS011;7043;51.630;7.254;2022-10-20T04:43:49;16.27;;;13.77;;
13941;SDS011;7043;51.630;7.254;2022-10-20T04:46:16;18.17;;;13.77;;
13941;SDS011;7043;51.630;7.254;2022-10-20T04:48:42;18.37;;;14.20;;
13941;SDS011;7043;51.630;7.254;2022-10-20T04:51:09;15.10;;;13.50;;
13941;SDS011;7043;51.630;7.254;2022-10-20T04:53:36;15.70;;;13.87;;
13941;SDS011;7043;51.630;7.254;2022-10-20T04:56:03;18.17;;;14.43;;
13941;SDS011;7043;51.630;7.254;2022-10-20T04:58:29;16.40;;;13.70;;
13941;SDS011;7043;51.630;7.254;2022-10-20T05:00:59;15.10;;;13.00;;
13941;SDS011;7043;51.630;7.254;2022-10-20T05:03:25;18.57;;;13.50;;
13941;SDS011;7043;51.630;7.254;2022-10-20T05:05:51;16.10;;;13.67;;
13941;SDS011;7043;51.630;7.254;2022-10-20T05:08:17;15.13;;;13.27;;
13941;SDS011;7043;51.630;7.254;2022-10-20T05:10:43;16.87;;;13.90;;
13941;SDS011;7043;51.630;7.254;2022-10-20T05:13:09;17.47;;;14.70;;
13941;SDS011;7043;51.630;7.254;2022-10-20T05:15:35;17.77;;;14.57;;
13941;SDS011;7043;51.630;7.254;2022-10-20T05:18:01;25.40;;;15.07;;
13941;SDS011;7043;51.630;7.254;2022-10-20T05:20:27;17.30;;;14.87;;
13941;SDS011;7043;51.630;7.254;2022-10-20T05:22:54;17.90;;;15.13;;
13941;SDS011;7043;51.630;7.254;2022-10-20T05:25:20;21.20;;;15.63;;
13941;SDS011;7043;51.630;7.254;2022-10-20T05:27:46;16.73;;;14.93;;
13941;SDS011;7043;51.630;7.254;2022-10-20T05:30:12;19.90;;;15.33;;
13941;SDS011;7043;51.630;7.254;2022-10-20T05:32:38;20.00;;;15.30;;
13941;SDS011;7043;51.630;7.254;2022-10-20T05:35:04;19.20;;;15.40;;
13941;SDS011;7043;51.630;7.254;2022-10-20T05:37:30;18.77;;;15.80;;
13941;SDS011;7043;51.630;7.254;2022-10-20T05:39:56;18.80;;;16.27;;
13941;SDS011;7043;51.630;7.254;2022-10-20T05:42:23;17.30;;;15.27;;
13941;SDS011;7043;51.630;7.254;2022-10-20T05:44:49;18.67;;;15.67;;
13941;SDS011;7043;51.630;7.254;2022-10-20T05:47:15;19.87;;;16.57;;
13941;SDS011;7043;51.630;7.254;2022-10-20T05:49:41;20.40;;;16.47;;
13941;SDS011;7043;51.630;7.254;2022-10-20T05:52:07;19.30;;;16.23;;
13941;SDS011;7043;51.630;7.254;2022-10-20T05:54:33;18.80;;;15.90;;
13941;SDS011;7043;51.630;7.254;2022-10-20T05:56:59;19.77;;;15.63;;
13941;SDS011;7043;51.630;7.254;2022-10-20T05:59:25;16.73;;;14.97;;
13941;SDS011;7043;51.630;7.254;2022-10-20T06:01:51;17.13;;;15.20;;
13941;SDS011;7043;51.630;7.254;2022-10-20T06:04:21;18.53;;;15.37;;
13941;SDS011;7043;51.630;7.254;2022-10-20T06:06:48;16.93;;;15.13;;
13941;SDS011;7043;51.630;7.254;2022-10-20T06:09:14;23.67;;;15.73;;
13941;SDS011;7043;51.630;7.254;2022-10-20T06:11:41;18.10;;;16.20;;
13941;SDS011;7043;51.630;7.254;2022-10-20T06:14:07;17.83;;;15.43;;
13941;SDS011;7043;51.630;7.254;2022-10-20T06:16:34;18.80;;;14.97;;
13941;SDS011;7043;51.630;7.254;2022-10-20T06:19:00;18.23;;;15.47;;
13941;SDS011;7043;51.630;7.254;2022-10-20T06:21:30;17.23;;;15.43;;
13941;SDS011;7043;51.630;7.254;2022-10-20T06:23:57;17.17;;;14.70;;
13941;SDS011;7043;51.630;7.254;2022-10-20T06:26:24;16.60;;;14.90;;
13941;SDS011;7043;51.630;7.254;2022-10-20T06:28:52;16.17;;;14.47;;
13941;SDS011;7043;51.630;7.254;2022-10-20T06:31:22;18.70;;;15.10;;
13941;SDS011;7043;51.630;7.254;2022-10-20T06:33:48;16.93;;;14.17;;
13941;SDS011;7043;51.630;7.254;2022-10-20T06:36:14;18.77;;;15.40;;
13941;SDS011;7043;51.630;7.254;2022-10-20T06:38:41;19.03;;;14.93;;
13941;SDS011;7043;51.630;7.254;2022-10-20T06:41:10;16.37;;;14.60;;
13941;SDS011;7043;51.630;7.254;2022-10-20T06:43:36;15.73;;;14.03;;
13941;SDS011;7043;51.630;7.254;2022-10-20T06:46:03;18.10;;;14.37;;
13941;SDS011;7043;51.630;7.254;2022-10-20T06:48:29;16.67;;;14.20;;
13941;SDS011;7043;51.630;7.254;2022-10-20T06:50:59;18.73;;;14.83;;
13941;SDS011;7043;51.630;7.254;2022-10-20T06:53:25;16.67;;;14.63;;
13941;SDS011;7043;51.630;7.254;2022-10-20T06:55:58;16.37;;;14.60;;
13941;SDS011;7043;51.630;7.254;2022-10-20T06:58:24;16.93;;;15.07;;
13941;SDS011;7043;51.630;7.254;2022-10-20T07:00:57;16.63;;;14.83;;
13941;SDS011;7043;51.630;7.254;2022-10-20T07:03:24;20.87;;;15.63;;
13941;SDS011;7043;51.630;7.254;2022-10-20T07:05:50;18.00;;;15.57;;
13941;SDS011;7043;51.630;7.254;2022-10-20T07:08:16;17.13;;;15.33;;
13941;SDS011;7043;51.630;7.254;2022-10-20T07:10:42;16.17;;;14.47;;
13941;SDS011;7043;51.630;7.254;2022-10-20T07:13:08;16.57;;;14.77;;
13941;SDS011;7043;51.630;7.254;2022-10-20T07:15:34;16.20;;;14.50;;
13941;SDS011;7043;51.630;7.254;2022-10-20T07:18:00;16.47;;;14.77;;
13941;SDS011;7043;51.630;7.254;2022-10-20T07:20:26;16.40;;;14.33;;
13941;SDS011;7043;51.630;7.254;2022-10-20T07:22:52;16.33;;;14.10;;
13941;SDS011;7043;51.630;7.254;2022-10-20T07:25:17;15.20;;;13.70;;
13941;SDS011;7043;51.630;7.254;2022-10-20T07:27:45;15.33;;;13.73;;
13941;SDS011;7043;51.630;7.254;2022-10-20T07:30:11;15.37;;;13.47;;
13941;SDS011;7043;51.630;7.254;2022-10-20T07:32:37;17.30;;;14.87;;
13941;SDS011;7043;51.630;7.254;2022-10-20T07:35:03;15.67;;;14.07;;
13941;SDS011;7043;51.630;7.254;2022-10-20T07:37:30;16.43;;;14.83;;
13941;SDS011;7043;51.630;7.254;2022-10-20T07:39:55;16.63;;;13.87;;
13941;SDS011;7043;51.630;7.254;2022-10-20T07:42:21;15.27;;;13.77;;
13941;SDS011;7043;51.630;7.254;2022-10-20T07:44:47;17.87;;;14.10;;
13941;SDS011;7043;51.630;7.254;2022-10-20T07:47:13;15.43;;;13.87;;
13941;SDS011;7043;51.630;7.254;2022-10-20T07:49:39;14.80;;;13.07;;
13941;SDS011;7043;51.630;7.254;2022-10-20T07:52:05;16.00;;;14.30;;
13941;SDS011;7043;51.630;7.254;2022-10-20T07:54:31;15.17;;;13.43;;
13941;SDS011;7043;51.630;7.254;2022-10-20T07:56:57;16.87;;;13.37;;
13941;SDS011;7043;51.630;7.254;2022-10-20T07:59:23;15.37;;;13.87;;
13941;SDS011;7043;51.630;7.254;2022-10-20T08:01:49;17.67;;;13.83;;
13941;SDS011;7043;51.630;7.254;2022-10-20T08:04:15;15.17;;;13.57;;
13941;SDS011;7043;51.630;7.254;2022-10-20T08:06:41;15.23;;;13.70;;
13941;SDS011;7043;51.630;7.254;2022-10-20T08:09:07;16.80;;;13.43;;
13941;SDS011;7043;51.630;7.254;2022-10-20T08:11:34;15.77;;;13.83;;
13941;SDS011;7043;51.630;7.254;2022-10-20T08:14:00;19.60;;;14.77;;
13941;SDS011;7043;51.630;7.254;2022-10-20T08:16:26;16.80;;;14.10;;
13941;SDS011;7043;51.630;7.254;2022-10-20T08:18:52;17.37;;;13.40;;
13941;SDS011;7043;51.630;7.254;2022-10-20T08:21:18;15.73;;;13.80;;
13941;SDS011;7043;51.630;7.254;2022-10-20T08:23:47;15.80;;;12.77;;
13941;SDS011;7043;51.630;7.254;2022-10-20T08:26:20;15.00;;;13.30;;
13941;SDS011;7043;51.630;7.254;2022-10-20T08:28:47;14.03;;;12.53;;
13941;SDS011;7043;51.630;7.254;2022-10-20T08:31:14;14.03;;;12.67;;
13941;SDS011;7043;51.630;7.254;2022-10-20T08:33:40;14.40;;;12.33;;
13941;SDS011;7043;51.630;7.254;2022-10-20T08:36:07;14.63;;;13.13;;
13941;SDS011;7043;51.630;7.254;2022-10-20T08:38:33;13.60;;;12.23;;
13941;SDS011;7043;51.630;7.254;2022-10-20T08:41:00;14.10;;;12.20;;
13941;SDS011;7043;51.630;7.254;2022-10-20T08:43:27;14.33;;;12.23;;
13941;SDS011;7043;51.630;7.254;2022-10-20T08:45:54;13.83;;;12.13;;
13941;SDS011;7043;51.630;7.254;2022-10-20T08:48:21;15.77;;;12.33;;
13941;SDS011;7043;51.630;7.254;2022-10-20T08:50:49;13.93;;;12.53;;
13941;SDS011;7043;51.630;7.254;2022-10-20T08:53:16;14.63;;;12.67;;
13941;SDS011;7043;51.630;7.254;2022-10-20T08:55:42;14.10;;;12.67;;
13941;SDS011;7043;51.630;7.254;2022-10-20T08:58:18;13.60;;;12.27;;
13941;SDS011;7043;51.630;7.254;2022-10-20T09:00:46;14.57;;;12.83;;
13941;SDS011;7043;51.630;7.254;2022-10-20T09:03:14;13.57;;;12.03;;
13941;SDS011;7043;51.630;7.254;2022-10-20T09:05:42;15.03;;;12.73;;
13941;SDS011;7043;51.630;7.254;2022-10-20T09:08:08;16.27;;;12.80;;
13941;SDS011;7043;51.630;7.254;2022-10-20T09:10:35;14.00;;;12.50;;
13941;SDS011;7043;51.630;7.254;2022-10-20T09:13:04;14.57;;;13.00;;
13941;SDS011;7043;51.630;7.254;2022-10-20T09:15:31;14.03;;;12.60;;
13941;SDS011;7043;51.630;7.254;2022-10-20T09:17:58;15.27;;;12.90;;
13941;SDS011;7043;51.630;7.254;2022-10-20T09:20:32;18.07;;;14.10;;
13941;SDS011;7043;51.630;7.254;2022-10-20T09:22:59;13.80;;;12.40;;
13941;SDS011;7043;51.630;7.254;2022-10-20T09:25:25;14.07;;;12.60;;
13941;SDS011;7043;51.630;7.254;2022-10-20T09:27:52;14.03;;;11.90;;
13941;SDS011;7043;51.630;7.254;2022-10-20T09:30:22;13.37;;;11.97;;
13941;SDS011;7043;51.630;7.254;2022-10-20T09:32:50;16.30;;;12.50;;
13941;SDS011;7043;51.630;7.254;2022-10-20T09:35:17;12.60;;;11.40;;
13941;SDS011;7043;51.630;7.254;2022-10-20T09:37:50;14.07;;;12.37;;
13941;SDS011;7043;51.630;7.254;2022-10-20T09:40:17;14.93;;;12.70;;
13941;SDS011;7043;51.630;7.254;2022-10-20T09:42:48;14.73;;;13.17;;
13941;SDS011;7043;51.630;7.254;2022-10-20T09:45:21;14.80;;;13.17;;
13941;SDS011;7043;51.630;7.254;2022-10-20T09:47:52;16.83;;;13.47;;
13941;SDS011;7043;51.630;7.254;2022-10-20T09:50:22;13.70;;;12.27;;
13941;SDS011;7043;51.630;7.254;2022-10-20T09:52:50;13.60;;;12.23;;
13941;SDS011;7043;51.630;7.254;2022-10-20T09:55:27;15.57;;;12.90;;
13941;SDS011;7043;51.630;7.254;2022-10-20T09:57:53;15.57;;;13.63;;
13941;SDS011;7043;51.630;7.254;2022-10-20T10:00:43;14.63;;;13.20;;
13941;SDS011;7043;51.630;7.254;2022-10-20T10:03:17;16.20;;;14.07;;
13941;SDS011;7043;51.630;7.254;2022-10-20T10:05:47;15.83;;;14.10;;
13941;SDS011;7043;51.630;7.254;2022-10-20T10:08:14;14.60;;;13.17;;
13941;SDS011;7043;51.630;7.254;2022-10-20T10:10:41;15.17;;;13.57;;
13941;SDS011;7043;51.630;7.254;2022-10-20T10:13:18;16.37;;;14.60;;
13941;SDS011;7043;51.630;7.254;2022-10-20T10:15:45;14.40;;;13.10;;
13941;SDS011;7043;51.630;7.254;2022-10-20T10:18:12;17.00;;;13.50;;
13941;SDS011;7043;51.630;7.254;2022-10-20T10:20:39;15.20;;;13.03;;
13941;SDS011;7043;51.630;7.254;2022-10-20T10:23:07;15.83;;;14.07;;
13941;SDS011;7043;51.630;7.254;2022-10-20T10:25:33;16.17;;;13.57;;
13941;SDS011;7043;51.630;7.254;2022-10-20T10:28:00;16.37;;;13.23;;
13941;SDS011;7043;51.630;7.254;2022-10-20T10:30:33;18.80;;;14.33;;
13941;SDS011;7043;51.630;7.254;2022-10-20T10:33:00;16.13;;;14.43;;
13941;SDS011;7043;51.630;7.254;2022-10-20T10:35:27;15.97;;;14.10;;
13941;SDS011;7043;51.630;7.254;2022-10-20T10:37:54;15.23;;;13.63;;
13941;SDS011;7043;51.630;7.254;2022-10-20T10:40:21;15.63;;;13.70;;
13941;SDS011;7043;51.630;7.254;2022-10-20T10:45:24;15.70;;;14.07;;
13941;SDS011;7043;51.630;7.254;2022-10-20T10:51:21;17.27;;;13.53;;
13941;SDS011;7043;51.630;7.254;2022-10-20T10:55:57;15.43;;;13.93;;
13941;SDS011;7043;51.630;7.254;2022-10-20T11:11:33;17.53;;;15.03;;
13941;SDS011;7043;51.630;7.254;2022-10-20T11:16:31;16.73;;;13.33;;
13941;SDS011;7043;51.630;7.254;2022-10-20T11:19:15;14.83;;;12.33;;
13941;SDS011;7043;51.630;7.254;2022-10-20T11:24:38;12.03;;;9.50;;
13941;SDS011;7043;51.630;7.254;2022-10-20T11:27:08;9.37;;;8.43;;
13941;SDS011;7043;51.630;7.254;2022-10-20T11:32:15;9.73;;;7.83;;
13941;SDS011;7043;51.630;7.254;2022-10-20T11:34:49;10.33;;;7.70;;
13941;SDS011;7043;51.630;7.254;2022-10-20T11:37:25;10.40;;;8.47;;
13941;SDS011;7043;51.630;7.254;2022-10-20T11:40:11;9.53;;;8.60;;
13941;SDS011;7043;51.630;7.254;2022-10-20T11:47:50;10.80;;;8.63;;
13941;SDS011;7043;51.630;7.254;2022-10-20T11:50:19;9.63;;;8.70;;
13941;SDS011;7043;51.630;7.254;2022-10-20T11:58:24;13.57;;;9.10;;
13941;SDS011;7043;51.630;7.254;2022-10-20T12:06:17;12.90;;;9.50;;
13941;SDS011;7043;51.630;7.254;2022-10-20T12:09:05;12.90;;;10.70;;
13941;SDS011;7043;51.630;7.254;2022-10-20T12:14:11;12.37;;;9.30;;
13941;SDS011;7043;51.630;7.254;2022-10-20T12:19:32;11.93;;;9.20;;
13941;SDS011;7043;51.630;7.254;2022-10-20T12:27:18;11.37;;;9.00;;
13941;SDS011;7043;51.630;7.254;2022-10-20T12:29:46;11.90;;;9.40;;
13941;SDS011;7043;51.630;7.254;2022-10-20T12:32:22;13.57;;;10.50;;
13941;SDS011;7043;51.630;7.254;2022-10-20T12:34:56;11.40;;;9.53;;
13941;SDS011;7043;51.630;7.254;2022-10-20T12:37:32;13.37;;;10.57;;
13941;SDS011;7043;51.630;7.254;2022-10-20T12:42:37;14.47;;;10.67;;
13941;SDS011;7043;51.630;7.254;2022-10-20T12:45:19;12.93;;;11.73;;
13941;SDS011;7043;51.630;7.254;2022-10-20T12:47:49;15.50;;;11.77;;
13941;SDS011;7043;51.630;7.254;2022-10-20T12:52:54;14.73;;;12.80;;
13941;SDS011;7043;51.630;7.254;2022-10-20T12:55:28;15.83;;;12.57;;
13941;SDS011;7043;51.630;7.254;2022-10-20T12:58:09;14.30;;;11.97;;
13941;SDS011;7043;51.630;7.254;2022-10-20T13:05:56;15.70;;;13.20;;
13941;SDS011;7043;51.630;7.254;2022-10-20T13:08:32;14.37;;;12.87;;
13941;SDS011;7043;51.630;7.254;2022-10-20T13:13:50;16.33;;;13.03;;
13941;SDS011;7043;51.630;7.254;2022-10-20T13:16:19;16.33;;;14.10;;
13941;SDS011;7043;51.630;7.254;2022-10-20T13:18:46;15.33;;;13.73;;
13941;SDS011;7043;51.630;7.254;2022-10-20T13:21:19;15.73;;;13.33;;
13941;SDS011;7043;51.630;7.254;2022-10-20T13:23:53;16.50;;;14.80;;
13941;SDS011;7043;51.630;7.254;2022-10-20T13:26:27;18.10;;;15.17;;
13941;SDS011;7043;51.630;7.254;2022-10-20T13:28:54;16.33;;;14.63;;
13941;SDS011;7043;51.630;7.254;2022-10-20T13:31:30;17.17;;;15.33;;
13941;SDS011;7043;51.630;7.254;2022-10-20T13:34:01;16.70;;;15.00;;
13941;SDS011;7043;51.630;7.254;2022-10-20T13:39:13;18.27;;;15.33;;
13941;SDS011;7043;51.630;7.254;2022-10-20T13:41:50;16.70;;;14.90;;
13941;SDS011;7043;51.630;7.254;2022-10-20T13:52:16;17.43;;;14.43;;
13941;SDS011;7043;51.630;7.254;2022-10-20T13:54:43;16.40;;;14.50;;
13941;SDS011;7043;51.630;7.254;2022-10-20T13:57:28;15.67;;;14.17;;
13941;SDS011;7043;51.630;7.254;2022-10-20T13:59:56;15.87;;;14.07;;
13941;SDS011;7043;51.630;7.254;2022-10-20T14:02:24;18.27;;;15.07;;
13941;SDS011;7043;51.630;7.254;2022-10-20T14:05:00;18.87;;;15.97;;
13941;SDS011;7043;51.630;7.254;2022-10-20T14:07:33;16.63;;;14.83;;
13941;SDS011;7043;51.630;7.254;2022-10-20T14:10:00;16.23;;;14.53;;
13941;SDS011;7043;51.630;7.254;2022-10-20T14:12:26;16.17;;;14.57;;
13941;SDS011;7043;51.630;7.254;2022-10-20T14:14:54;16.10;;;14.50;;
13941;SDS011;7043;51.630;7.254;2022-10-20T14:17:21;16.60;;;14.73;;
13941;SDS011;7043;51.630;7.254;2022-10-20T14:19:48;16.13;;;14.53;;
13941;SDS011;7043;51.630;7.254;2022-10-20T14:22:16;15.67;;;13.80;;
13941;SDS011;7043;51.630;7.254;2022-10-20T14:24:44;16.03;;;14.50;;
13941;SDS011;7043;51.630;7.254;2022-10-20T14:27:21;15.10;;;13.40;;
13941;SDS011;7043;51.630;7.254;2022-10-20T14:29:47;18.30;;;14.20;;
13941;SDS011;7043;51.630;7.254;2022-10-20T14:32:17;19.37;;;15.53;;
13941;SDS011;7043;51.630;7.254;2022-10-20T14:37:27;17.57;;;13.90;;
13941;SDS011;7043;51.630;7.254;2022-10-20T14:39:54;16.33;;;13.63;;
13941;SDS011;7043;51.630;7.254;2022-10-20T14:42:21;17.23;;;13.57;;
13941;SDS011;7043;51.630;7.254;2022-10-20T14:44:48;15.60;;;13.53;;
13941;SDS011;7043;51.630;7.254;2022-10-20T14:47:14;16.43;;;13.83;;
13941;SDS011;7043;51.630;7.254;2022-10-20T14:49:41;15.93;;;13.43;;
13941;SDS011;7043;51.630;7.254;2022-10-20T14:52:20;14.67;;;12.60;;
13941;SDS011;7043;51.630;7.254;2022-10-20T14:54:47;14.53;;;13.13;;
13941;SDS011;7043;51.630;7.254;2022-10-20T14:59:53;15.00;;;13.40;;
13941;SDS011;7043;51.630;7.254;2022-10-20T15:04:54;14.57;;;12.47;;
13941;SDS011;7043;51.630;7.254;2022-10-20T15:09:50;15.17;;;13.53;;
13941;SDS011;7043;51.630;7.254;2022-10-20T15:12:18;17.00;;;12.63;;
13941;SDS011;7043;51.630;7.254;2022-10-20T15:14:46;14.20;;;12.70;;
13941;SDS011;7043;51.630;7.254;2022-10-20T15:17:29;15.30;;;12.67;;
13941;SDS011;7043;51.630;7.254;2022-10-20T15:19:55;13.87;;;12.07;;
13941;SDS011;7043;51.630;7.254;2022-10-20T15:22:21;13.57;;;12.23;;
13941;SDS011;7043;51.630;7.254;2022-10-20T15:24:47;15.30;;;12.43;;
13941;SDS011;7043;51.630;7.254;2022-10-20T15:27:15;12.77;;;11.47;;
13941;SDS011;7043;51.630;7.254;2022-10-20T15:29:48;15.20;;;12.43;;
13941;SDS011;7043;51.630;7.254;2022-10-20T15:32:14;13.93;;;12.27;;
13941;SDS011;7043;51.630;7.254;2022-10-20T15:34:40;14.57;;;12.10;;
13941;SDS011;7043;51.630;7.254;2022-10-20T15:37:07;13.47;;;12.07;;
13941;SDS011;7043;51.630;7.254;2022-10-20T15:39:34;13.10;;;11.70;;
13941;SDS011;7043;51.630;7.254;2022-10-20T15:42:01;13.43;;;12.03;;
13941;SDS011;7043;51.630;7.254;2022-10-20T15:44:29;12.70;;;11.40;;
13941;SDS011;7043;51.630;7.254;2022-10-20T15:46:55;13.03;;;11.70;;
13941;SDS011;7043;51.630;7.254;2022-10-20T15:49:22;14.47;;;11.93;;
13941;SDS011;7043;51.630;7.254;2022-10-20T15:51:48;12.63;;;11.33;;
13941;SDS011;7043;51.630;7.254;2022-10-20T15:54:19;13.83;;;11.47;;
13941;SDS011;7043;51.630;7.254;2022-10-20T15:56:45;14.17;;;11.57;;
13941;SDS011;7043;51.630;7.254;2022-10-20T15:59:12;12.37;;;11.13;;
13941;SDS011;7043;51.630;7.254;2022-10-20T16:01:38;12.97;;;11.67;;
13941;SDS011;7043;51.630;7.254;2022-10-20T16:04:08;12.67;;;11.30;;
13941;SDS011;7043;51.630;7.254;2022-10-20T16:06:38;14.40;;;11.60;;
13941;SDS011;7043;51.630;7.254;2022-10-20T16:09:04;14.80;;;11.20;;
13941;SDS011;7043;51.630;7.254;2022-10-20T16:11:30;13.87;;;11.67;;
13941;SDS011;7043;51.630;7.254;2022-10-20T16:13:56;13.27;;;10.93;;
13941;SDS011;7043;51.630;7.254;2022-10-20T16:16:22;12.37;;;11.00;;
13941;SDS011;7043;51.630;7.254;2022-10-20T16:18:48;13.57;;;11.93;;
13941;SDS011;7043;51.630;7.254;2022-10-20T16:21:14;13.70;;;10.87;;
13941;SDS011;7043;51.630;7.254;2022-10-20T16:23:40;12.77;;;10.87;;
13941;SDS011;7043;51.630;7.254;2022-10-20T16:26:07;13.77;;;10.97;;
13941;SDS011;7043;51.630;7.254;2022-10-20T16:28:34;16.10;;;14.60;;
13941;SDS011;7043;51.630;7.254;2022-10-20T16:31:01;12.30;;;11.10;;
13941;SDS011;7043;51.630;7.254;2022-10-20T16:33:27;16.53;;;11.20;;
13941;SDS011;7043;51.630;7.254;2022-10-20T16:35:53;12.57;;;10.23;;
13941;SDS011;7043;51.630;7.254;2022-10-20T16:38:19;16.03;;;14.33;;